Winter Garden, Florida
Current Conditions -  °F | °C
As of 5:53 PM on Sunday 21 Dec 2014 (Local Time) from KORL Reporting Station
Overcast Overcast  
Wind Chill: 74°   Ceiling: 5500
Heat Index: 74°   Visibility: 10mi
Dew Point: 64°   Wind: 6mph
Humidity: 71%   Direction: 330°NNW
Pressure: 30.03"   Gusts: NA
Location:  28.57°N, 81.59°W
Report Text: KORL 212253Z 33005KT 10SM SCT045 OVC055 23/18 A3003 RMK AO2 LTG DSNT W SLP173 T02330178
Loading
Personal Weather Stations






























Interactive Weather Map New forecast layout! Learn more

10-Day Weather Forecast

Advertisements
Track Severe Weather on mobile